Data for 11/17/2014

Time Sea-Level Adjusted Pressure Absolute Pressure Temperature Relative Humidity Dew Point   
(mb) (inHg) (mb) (inHg) (C) (F) (%) (C) (F)
00:05 1029 30.39 858 25.34 -11.1 12 74 -14.9 5.2
00:10 1029 30.39 858 25.34 -10.9 12.3 73 -14.8 5.4
00:15 1029 30.39 858 25.34 -10.8 12.7 71 -15 5
00:20 1029 30.39 858 25.34 -11.6 11.2 75 -15.2 4.7
00:25 1029 30.39 858 25.34 -12 10.5 77 -15.2 4.6
00:30 1029 30.39 858 25.34 -12 10.5 77 -15.2 4.7
00:35 1029 30.39 858 25.34 -12.1 10.1 78 -15.2 4.7
00:40 1029 30.39 858 25.34 -12.1 10.2 78 -15.2 4.6
00:45 1029 30.39 858 25.34 -12.3 9.9 79 -15.3 4.5
00:50 1029 30.39 858 25.34 -12 10.5 77 -15.2 4.6
00:55 1029 30.39 858 25.34 -11.8 10.7 77 -15.1 4.8
01:00 1029 30.39 858 25.34 -11.7 11 77 -14.9 5.1
01:05 1029 30.39 858 25.34 -11.5 11.4 78 -14.6 5.8
01:10 1029 30.39 858 25.34 -11.5 11.3 77 -14.7 5.5
01:15 1029 30.39 858 25.34 -11.7 10.9 78 -14.9 5.2
01:20 1029 30.39 858 25.34 -11.9 10.7 76 -15.3 4.4
01:25 1029 30.39 858 25.34 -12.4 9.7 76 -15.7 3.7
01:30 1029 30.39 858 25.34 -12.7 9.1 79 -15.6 3.9
01:35 1029 30.39 858 25.34 -12.7 9.2 80 -15.4 4.2
01:40 1029 30.39 858 25.34 -12.3 9.8 80 -15.2 4.7
01:45 1028 30.36 858 25.34 -12 10.4 80 -14.7 5.5
01:50 1028 30.36 858 25.34 -11.9 10.5 83 -14.3 6.2
01:55 1028 30.36 858 25.34 -11.9 10.7 79 -14.9 5.2
02:00 1028 30.36 858 25.34 -12 10.4 80 -14.8 5.4
02:05 1028 30.36 858 25.34 -11.9 10.5 79 -14.9 5.3
02:10 1028 30.36 858 25.34 -11.8 10.8 79 -14.7 5.5
02:15 1028 30.36 858 25.34 -11.6 11.1 77 -14.9 5.2
02:20 1028 30.36 858 25.34 -12 10.5 78 -15 4.9
02:25 1028 30.36 858 25.34 -12.3 9.8 79 -15.2 4.6
02:30 1028 30.36 858 25.34 -12.3 9.9 80 -15.1 4.8
02:35 1028 30.36 857 25.31 -12.2 10.1 80 -15 5
02:40 1028 30.36 857 25.31 -12.1 10.2 79 -15 4.9
02:45 1028 30.36 857 25.31 -12.3 9.9 81 -14.9 5.1
02:50 1028 30.36 857 25.31 -12.3 9.8 80 -15.1 4.8
02:55 1028 30.36 857 25.31 -12.2 10.1 82 -14.7 5.5
03:00 1028 30.36 857 25.31 -11.8 10.7 76 -15.2 4.7
03:05 1028 30.36 857 25.31 -11.5 11.3 75 -15.1 4.9
03:10 1028 30.36 857 25.31 -11.6 11.2 77 -14.9 5.2
03:15 1028 30.36 857 25.31 -11.9 10.5 78 -15 4.9
03:20 1028 30.36 857 25.31 -12.2 10 79 -15.2 4.6
03:25 1028 30.36 857 25.31 -12.6 9.4 79 -15.4 4.2
03:30 1028 30.36 857 25.31 -12.7 9.1 81 -15.4 4.3
03:35 1028 30.36 857 25.31 -12.5 9.4 81 -15.2 4.7
03:40 1028 30.36 857 25.31 -12.4 9.6 80 -15.2 4.6
03:45 1028 30.36 857 25.31 -12.7 9.1 77 -16 3.2
03:50 1028 30.36 857 25.31 -13.3 8.1 84 -15.5 4
03:55 1028 30.36 857 25.31 -12.5 9.6 79 -15.4 4.3
04:00 1028 30.36 857 25.31 -12.5 9.6 76 -15.9 3.5
04:05 1028 30.36 857 25.31 -13.1 8.5 80 -15.9 3.4
04:10 1028 30.36 857 25.31 -13 8.5 79 -15.9 3.4
04:15 1028 30.36 857 25.31 -13.1 8.5 79 -15.9 3.3
04:20 1028 30.36 857 25.31 -13.1 8.5 79 -16 3.2
04:25 1028 30.36 857 25.31 -13 8.5 79 -16 3.3
04:30 1028 30.36 857 25.31 -13 8.6 80 -15.8 3.6
04:35 1028 30.36 857 25.31 -12.6 9.3 80 -15.4 4.3
04:40 1028 30.36 857 25.31 -12.6 9.4 79 -15.4 4.2
04:45 1028 30.36 857 25.31 -12.7 9.1 80 -15.4 4.2
04:50 1028 30.36 857 25.31 -12.6 9.3 79 -15.5 4
04:55 1028 30.36 857 25.31 -12.7 9.2 80 -15.5 4.2
05:00 1028 30.36 857 25.31 -12.6 9.3 79 -15.5 4.1
05:05 1028 30.36 857 25.31 -12.5 9.6 79 -15.4 4.3
05:10 1028 30.36 857 25.31 -12.5 9.6 79 -15.5 4.2
05:15 1028 30.36 857 25.31 -12.5 9.5 79 -15.5 4.2
05:20 1028 30.36 857 25.31 -12.8 9 80 -15.6 3.9
05:25 1028 30.36 857 25.31 -13.2 8.3 80 -15.9 3.3
05:30 1028 30.36 857 25.31 -13.2 8.3 80 -15.9 3.3
05:35 1028 30.36 857 25.31 -13 8.6 80 -15.8 3.6
05:40 1028 30.36 857 25.31 -12.8 9.1 79 -15.7 3.8
05:45 1028 30.36 857 25.31 -12.7 9.1 78 -15.8 3.6
05:50 1028 30.36 857 25.31 -13.2 8.2 81 -15.8 3.5
05:55 1028 30.36 857 25.31 -13.4 8 82 -15.8 3.5
06:00 1028 30.36 857 25.31 -13.1 8.4 81 -15.8 3.6
06:05 1028 30.36 857 25.31 -13.1 8.3 81 -15.8 3.6
06:10 1028 30.36 857 25.31 -13.2 8.2 81 -15.8 3.5
06:15 1028 30.36 857 25.31 -13.2 8.2 81 -15.9 3.4
06:20 1028 30.36 857 25.31 -13.2 8.2 79 -16.1 3
06:25 1028 30.36 857 25.31 -13.5 7.7 80 -16.3 2.6
06:30 1028 30.36 857 25.31 -13.9 7 82 -16.3 2.7
06:35 1028 30.36 857 25.31 -13.8 7.2 81 -16.4 2.5
06:40 1028 30.36 857 25.31 -14 6.9 81 -16.5 2.3
06:45 1028 30.36 857 25.31 -14.1 6.6 81 -16.6 2
06:50 1028 30.36 857 25.31 -14.2 6.5 81 -16.7 1.9
06:55 1028 30.36 857 25.31 -14.3 6.3 82 -16.8 1.8
07:00 1028 30.36 857 25.31 -14.4 6.1 82 -16.8 1.8
07:05 1028 30.36 857 25.31 -14.3 6.4 82 -16.6 2.1
07:10 1028 30.36 857 25.31 -14.1 6.5 81 -16.7 2
07:15 1028 30.36 857 25.31 -14.2 6.5 81 -16.7 2
07:20 1028 30.36 857 25.31 -14.1 6.7 82 -16.6 2.2
07:25 1028 30.36 857 25.31 -14.1 6.6 82 -16.6 2.2
07:30 1028 30.36 857 25.31 -14.2 6.5 83 -16.5 2.3
07:35 1028 30.36 857 25.31 -13.9 6.9 83 -16.2 2.8
07:40 1028 30.36 857 25.31 -13.6 7.6 82 -16 3.3
07:45 1027 30.33 857 25.31 -13.1 8.5 80 -15.8 3.6
07:50 1027 30.33 857 25.31 -13 8.6 79 -15.9 3.4
07:55 1027 30.33 857 25.31 -13.2 8.2 80 -16 3.2
08:00 1027 30.33 857 25.31 -13.5 7.6 79 -16.5 2.4
08:05 1027 30.33 857 25.31 -14 6.9 81 -16.5 2.3
08:10 1027 30.33 857 25.31 -14.2 6.4 80 -16.9 1.6
08:15 1027 30.33 857 25.31 -14.4 6.1 82 -16.8 1.8
08:20 1027 30.33 857 25.31 -14.3 6.3 81 -16.9 1.6
08:25 1027 30.33 856 25.28 -14.5 5.9 81 -17.1 1.2
08:30 1027 30.33 856 25.28 -14.6 5.6 81 -17.2 1.1
08:35 1027 30.33 856 25.28 -14.6 5.7 82 -17.1 1.2
08:40 1027 30.33 856 25.28 -14.4 6.1 82 -16.8 1.7
08:45 1027 30.33 856 25.28 -13.9 6.9 80 -16.7 2
08:50 1027 30.33 856 25.28 -13.9 7 80 -16.6 2.2
08:55 1027 30.33 856 25.28 -13.7 7.3 79 -16.7 2
09:00 1027 30.33 856 25.28 -13.7 7.4 79 -16.6 2
09:05 1027 30.33 856 25.28 -13.4 7.8 78 -16.5 2.3
09:10 1027 30.33 856 25.28 -13.4 7.9 79 -16.4 2.6
09:15 1027 30.33 856 25.28 -13.1 8.4 79 -16.1 3.1
09:20 1027 30.33 857 25.31 -12.6 9.4 77 -15.8 3.6
09:25 1027 30.33 857 25.31 -12 10.4 76 -15.4 4.2
09:30 1027 30.33 857 25.31 -11.5 11.2 71 -15.8 3.6
09:35 1027 30.33 857 25.31 -11.5 11.2 72 -15.7 3.7
09:40 1027 30.33 857 25.31 -11.5 11.4 70 -15.9 3.4
09:45 1027 30.33 857 25.31 -11.7 11 71 -15.8 3.5
09:50 1027 30.33 857 25.31 -11.5 11.3 70 -16 3.2
09:55 1027 30.33 857 25.31 -10.9 12.4 68 -15.7 3.7
10:00 1027 30.33 857 25.31 -10.4 13.2 67 -15.3 4.4
10:05 1027 30.33 857 25.31 -10.2 13.6 68 -15 4.9
10:10 1027 30.33 857 25.31 -10.2 13.7 68 -15.1 4.9
10:15 1027 30.33 857 25.31 -9.5 15 64 -15 5
10:20 1027 30.33 857 25.31 -9.3 15.3 66 -14.5 5.9
10:25 1027 30.33 857 25.31 -9.6 14.7 67 -14.6 5.7
10:30 1027 30.33 857 25.31 -9.7 14.5 67 -14.7 5.5
10:35 1027 30.33 857 25.31 -9.7 14.5 68 -14.5 5.8
10:40 1027 30.33 857 25.31 -9.3 15.2 65 -14.7 5.5
10:45 1027 30.33 857 25.31 -8.5 16.7 61 -14.7 5.6
10:50 1027 30.33 857 25.31 -8.1 17.5 60 -14.5 5.9
10:55 1027 30.33 857 25.31 -8.4 16.8 62 -14.5 6
11:00 1028 30.36 857 25.31 -8.3 17 62 -14.3 6.3
11:05 1028 30.36 857 25.31 -8.5 16.7 63 -14.3 6.3
11:10 1028 30.36 857 25.31 -8.1 17.5 59 -14.7 5.5
11:15 1028 30.36 857 25.31 -7.2 19 57 -14.4 6
11:20 1028 30.36 857 25.31 -7.2 19.1 56 -14.5 5.8
11:25 1028 30.36 857 25.31 -6.8 19.7 55 -14.4 6.1
11:30 1028 30.36 857 25.31 -7 19.4 56 -14.5 5.9
11:35 1027 30.33 857 25.31 -7.3 18.8 56 -14.8 5.4
11:40 1027 30.33 857 25.31 -7.4 18.8 55 -14.9 5.3
11:45 1027 30.33 857 25.31 -7.3 18.8 56 -14.7 5.5
11:50 1028 30.36 857 25.31 -7.8 18.1 57 -14.8 5.3
11:55 1027 30.33 857 25.31 -6.9 19.6 54 -14.8 5.4
12:00 1027 30.33 857 25.31 -6.4 20.5 52 -14.7 5.5
12:05 1027 30.33 857 25.31 -6.3 20.7 52 -14.6 5.7
12:10 1027 30.33 857 25.31 -6.4 20.4 54 -14.3 6.2
12:15 1027 30.33 857 25.31 -6.5 20.2 54 -14.4 6.1
12:20 1027 30.33 857 25.31 -6.3 20.6 53 -14.4 6
12:25 1027 30.33 857 25.31 -6.2 20.8 53 -14.4 6.1
12:30 1027 30.33 856 25.28 -6.1 21 53 -14.3 6.2
12:35 1027 30.33 856 25.28 -5.9 21.3 51 -14.5 5.9
12:40 1027 30.33 856 25.28 -5.9 21.3 52 -14.3 6.2
12:45 1027 30.33 856 25.28 -6 21.3 52 -14.2 6.4
12:50 1027 30.33 856 25.28 -5.9 21.3 51 -14.4 6.1
12:55 1027 30.33 856 25.28 -5.3 22.4 49 -14.4 6.2
13:00 1027 30.33 856 25.28 -5.7 21.8 51 -14.3 6.3
13:05 1027 30.33 856 25.28 -5.5 22.1 50 -14.4 6.1
13:10 1027 30.33 856 25.28 -5.2 22.6 50 -14.2 6.4
13:15 1027 30.33 856 25.28 -5.1 22.8 51 -13.7 7.4
13:20 1027 30.33 856 25.28 -4.8 23.3 49 -13.9 6.9
13:25 1027 30.33 856 25.28 -4.4 24.1 47 -14.1 6.5
13:30 1027 30.33 856 25.28 -4.7 23.6 48 -14 6.8
13:35 1027 30.33 856 25.28 -4.8 23.4 48 -14.3 6.2
13:40 1027 30.33 856 25.28 -4.7 23.5 49 -14 6.9
13:45 1027 30.33 856 25.28 -4.6 23.6 48 -14 6.9
13:50 1027 30.33 856 25.28 -4.3 24.3 46 -14.2 6.4
13:55 1027 30.33 856 25.28 -3.9 25 46 -13.8 7.1
14:00 1027 30.33 856 25.28 -3.7 25.4 46 -13.8 7.1
14:05 1027 30.33 856 25.28 -3.8 25.1 47 -13.6 7.6
14:10 1026 30.3 856 25.28 -3.6 25.5 45 -14 6.7
14:15 1026 30.3 856 25.28 -4.1 24.7 48 -13.5 7.6
14:20 1026 30.3 856 25.28 -4.2 24.5 47 -13.8 7.2
14:25 1026 30.3 856 25.28 -3.6 25.5 46 -13.7 7.3
14:30 1026 30.3 856 25.28 -3.8 25.2 45 -14 6.9
14:35 1026 30.3 856 25.28 -4.2 24.4 48 -13.8 7.2
14:40 1026 30.3 855 25.25 -4 24.7 48 -13.5 7.8
14:45 1026 30.3 855 25.25 -3.8 25.1 49 -13.1 8.4
14:50 1026 30.3 855 25.25 -3.6 25.6 47 -13.2 8.2
14:55 1026 30.3 855 25.25 -3.7 25.4 48 -13.1 8.5
15:00 1026 30.3 855 25.25 -3.6 25.6 48 -13.1 8.4
15:05 1026 30.3 855 25.25 -3.5 25.7 48 -12.9 8.7
15:10 1026 30.3 855 25.25 -3.2 26.2 46 -13.2 8.3
15:15 1026 30.3 855 25.25 -3.7 25.3 49 -13 8.6
15:20 1026 30.3 855 25.25 -3.8 25.1 50 -12.8 8.9
15:25 1026 30.3 855 25.25 -3.8 25.1 49 -13.1 8.4
15:30 1026 30.3 855 25.25 -3.7 25.4 49 -12.9 8.9
15:35 1026 30.3 855 25.25 -3.9 24.9 48 -13.4 7.8
15:40 1026 30.3 855 25.25 -3.8 25.2 47 -13.6 7.5
15:45 1026 30.3 855 25.25 -3.7 25.4 47 -13.3 8
15:50 1026 30.3 855 25.25 -3.6 25.5 48 -13.1 8.5
15:55 1026 30.3 855 25.25 -3.7 25.3 48 -13.1 8.4
16:00 1026 30.3 855 25.25 -3.6 25.5 49 -12.8 9
16:05 1026 30.3 855 25.25 -3.8 25.2 49 -13.1 8.5
16:10 1026 30.3 855 25.25 -3.9 25 48 -13.4 7.9
16:15 1026 30.3 855 25.25 -3.7 25.4 49 -13 8.6
16:20 1026 30.3 855 25.25 -3.6 25.5 49 -13 8.7
16:25 1026 30.3 855 25.25 -4 24.8 49 -13.2 8.3
16:30 1026 30.3 855 25.25 -3.9 25 48 -13.3 8.1
16:35 1026 30.3 855 25.25 -3.8 25.1 49 -13.2 8.3
16:40 1026 30.3 855 25.25 -4.1 24.6 48 -13.5 7.7
16:45 1026 30.3 855 25.25 -3.9 25 49 -13.1 8.4
16:50 1026 30.3 855 25.25 -4.2 24.5 50 -13 8.6
16:55 1025 30.27 855 25.25 -4.2 24.4 51 -12.9 8.9
17:00 1025 30.27 855 25.25 -4.7 23.6 54 -12.6 9.4
17:05 1025 30.27 855 25.25 -5 23 54 -13 8.6
17:10 1025 30.27 855 25.25 -5.1 22.9 54 -12.9 8.7
17:15 1025 30.27 855 25.25 -5 23.1 54 -13 8.7
17:20 1025 30.27 855 25.25 -5 23 53 -13.1 8.5
17:25 1025 30.27 855 25.25 -5.2 22.6 54 -13.1 8.5
17:30 1025 30.27 855 25.25 -5.6 21.9 56 -13.1 8.5
17:35 1025 30.27 855 25.25 -5.5 22.2 56 -13 8.6
17:40 1025 30.27 855 25.25 -5.8 21.5 57 -13 8.7
17:45 1025 30.27 855 25.25 -6.2 20.8 58 -13.1 8.4
17:50 1025 30.27 855 25.25 -6.5 20.2 60 -13 8.6
17:55 1025 30.27 855 25.25 -6.7 20 61 -13.1 8.5
18:00 1025 30.27 855 25.25 -7.2 19.1 64 -12.9 8.7
18:05 1025 30.27 855 25.25 -7.5 18.6 64 -13.2 8.2
18:10 1025 30.27 854 25.22 -7.7 18.2 64 -13.3 8.1
18:15 1025 30.27 854 25.22 -7.8 17.9 65 -13.3 8
18:20 1025 30.27 854 25.22 -7.9 17.8 66 -13.3 8.1
18:25 1025 30.27 854 25.22 -8.1 17.5 66 -13.3 8.1
18:30 1025 30.27 855 25.25 -8.3 17 68 -13.2 8.3
18:35 1025 30.27 855 25.25 -8.5 16.8 69 -13.2 8.2
18:40 1025 30.27 855 25.25 -8.5 16.8 68 -13.4 7.8
18:45 1025 30.27 855 25.25 -8.4 16.9 68 -13.3 8
18:50 1025 30.27 854 25.22 -8.7 16.4 69 -13.3 8
18:55 1025 30.27 854 25.22 -8.9 16.1 70 -13.3 8
19:00 1025 30.27 854 25.22 -9.2 15.4 73 -13.2 8.2
19:05 1025 30.27 855 25.25 -9.5 14.9 72 -13.7 7.4
19:10 1025 30.27 855 25.25 -9.7 14.6 73 -13.6 7.4
19:15 1025 30.27 855 25.25 -9.8 14.4 73 -13.7 7.3
19:20 1025 30.27 855 25.25 -10 14 74 -13.8 7.1
19:25 1025 30.27 855 25.25 -10.2 13.7 75 -13.7 7.3
19:30 1025 30.27 855 25.25 -10.1 13.8 74 -13.9 7
19:35 1025 30.27 854 25.22 -10.1 13.9 74 -13.9 6.9
19:40 1025 30.27 854 25.22 -9.7 14.6 71 -13.9 6.9
19:45 1025 30.27 854 25.22 -10.2 13.7 76 -13.7 7.3
19:50 1025 30.27 854 25.22 -9.7 14.6 72 -13.8 7.2
19:55 1025 30.27 854 25.22 -9.7 14.6 72 -13.8 7.2
20:00 1025 30.27 854 25.22 -9.6 14.7 72 -13.8 7.1
20:05 1025 30.27 854 25.22 -9.7 14.5 72 -13.9 7
20:10 1025 30.27 854 25.22 -9.8 14.4 72 -13.9 7
20:15 1025 30.27 854 25.22 -9.9 14.2 73 -13.9 7
20:20 1025 30.27 854 25.22 -10 13.9 74 -13.8 7.1
20:25 1025 30.27 854 25.22 -10.3 13.5 75 -13.9 7
20:30 1025 30.27 854 25.22 -10.2 13.6 75 -13.8 7.1
20:35 1025 30.27 854 25.22 -9.9 14.1 74 -13.8 7.2
20:40 1025 30.27 854 25.22 -9.8 14.4 73 -13.8 7.1
20:45 1025 30.27 854 25.22 -10 13.9 74 -13.9 7
20:50 1025 30.27 854 25.22 -10.1 13.9 74 -13.9 6.9
20:55 1025 30.27 854 25.22 -10 14 74 -13.9 7
21:00 1025 30.27 854 25.22 -10.2 13.7 73 -14.1 6.7
21:05 1025 30.27 854 25.22 -10.8 12.6 76 -14.1 6.6
21:10 1025 30.27 854 25.22 -11 12.3 81 -13.6 7.6
21:15 1025 30.27 854 25.22 -10.3 13.5 76 -13.7 7.4
21:20 1025 30.27 854 25.22 -10.4 13.3 77 -13.7 7.3
21:25 1025 30.27 854 25.22 -10.5 13.1 78 -13.6 7.6
21:30 1025 30.27 854 25.22 -10.4 13.3 79 -13.4 7.9
21:35 1025 30.27 854 25.22 -10.2 13.6 81 -12.9 8.8
21:40 1024 30.24 854 25.22 -10 14 81 -12.6 9.3
21:45 1024 30.24 854 25.22 -9.8 14.4 82 -12.2 10
21:50 1024 30.24 854 25.22 -9.6 14.7 80 -12.5 9.5
21:55 1024 30.24 854 25.22 -9.7 14.5 77 -13 8.5
22:00 1024 30.24 853 25.19 -10 13.9 77 -13.3 8
22:05 1024 30.24 853 25.19 -10.1 13.8 77 -13.4 7.9
22:10 1024 30.24 853 25.19 -10.2 13.7 77 -13.5 7.7
22:15 1024 30.24 853 25.19 -10.4 13.4 77 -13.6 7.5
22:20 1024 30.24 853 25.19 -10.6 12.9 78 -13.8 7.2
22:25 1024 30.24 853 25.19 -10.4 13.2 77 -13.7 7.3
22:30 1024 30.24 853 25.19 -10.4 13.3 78 -13.5 7.7
22:35 1024 30.24 853 25.19 -10.5 13.2 78 -13.6 7.6
22:40 1024 30.24 853 25.19 -10.4 13.3 78 -13.5 7.7
22:45 1024 30.24 853 25.19 -10 14.1 76 -13.5 7.7
22:50 1024 30.24 853 25.19 -9.8 14.4 76 -13.2 8.2
22:55 1024 30.24 853 25.19 -9.7 14.5 79 -12.7 9.1
23:00 1024 30.24 853 25.19 -9.7 14.6 80 -12.5 9.5
23:05 1024 30.24 853 25.19 -9.8 14.3 80 -12.6 9.3
23:10 1024 30.24 853 25.19 -9.9 14.3 80 -12.6 9.3
23:15 1024 30.24 853 25.19 -10 14 79 -12.9 8.7
23:20 1024 30.24 853 25.19 -10.5 13.1 81 -13.2 8.3
23:25 1024 30.24 853 25.19 -10.2 13.7 84 -12.4 9.7
23:30 1024 30.24 853 25.19 -9.8 14.4 80 -12.6 9.3
23:35 1024 30.24 853 25.19 -10.4 13.4 79 -13.4 7.9
23:40 1024 30.24 853 25.19 -10.2 13.6 77 -13.6 7.6
23:45 1024 30.24 853 25.19 -10 14 76 -13.4 7.9
23:50 1024 30.24 853 25.19 -9.5 15 74 -13.3 8.1
23:55 1024 30.24 853 25.19 -9.1 15.6 75 -12.8 8.9
24:00 1024 30.24 853 25.19 -9 15.9 71 -13.3 8.1